This is the latest recevied weather packets stored in our database for station/object KC4QLP. If no packets are shown the sender has not sent any weather packets the latest 10 day(s).
| Time | Temp. | Humidity | Pressure | Rain* | Wind** | Luminosity | Snow |
|---|---|---|---|---|---|---|---|
| 1777365023 | 8.89° C | 78% | 1016.7 hPa | 0 mm | - | 0 W/m² | - |
| 1777363224 | 8.89° C | 78% | 1017.1 hPa | 0 mm | - | 0 W/m² | - |
| 1777361424 | 8.89° C | 78% | 1017.2 hPa | 0 mm | - | 0 W/m² | - |
| 1777359624 | 8.89° C | 78% | 1017.3 hPa | 0 mm | - | 0 W/m² | - |
| 1777357824 | 8.89° C | 78% | 1017.2 hPa | 0 mm | - | 0 W/m² | - |
| 1777356024 | 8.89° C | 78% | 1017.3 hPa | 0 mm | - | 0 W/m² | - |
| 1777354224 | 8.89° C | 78% | 1017.1 hPa | 0 mm | - | 0 W/m² | - |
| 1777352424 | 8.89° C | 78% | 1017.2 hPa | 0 mm | - | 0 W/m² | - |
| 1777350624 | 8.89° C | 78% | 1017.3 hPa | 0 mm | - | 0 W/m² | - |
| 1777348824 | 8.89° C | 78% | 1017.6 hPa | 0 mm | - | 0 W/m² | - |
| 1777347024 | 8.89° C | 78% | 1017.9 hPa | 0 mm | - | 0 W/m² | - |
| 1777345224 | 8.89° C | 78% | 1018.2 hPa | 0 mm | - | 0 W/m² | - |
| 1777343424 | 8.89° C | 78% | 1018.4 hPa | 0 mm | - | 0 W/m² | - |
| 1777341624 | 9.44° C | 78% | 1018.4 hPa | 0 mm | - | 0 W/m² | - |
| 1777339824 | 10.56° C | 75% | 1018.1 hPa | 0 mm | - | 0 W/m² | - |
| 1777338024 | 12.22° C | 66% | 1017.9 hPa | 0 mm | - | 0 W/m² | - |
| 1777336224 | 14.44° C | 55% | 1017.8 hPa | 0 mm | - | 0 W/m² | - |
| 1777334425 | 16.67° C | 47% | 1017.7 hPa | 0 mm | - | 0 W/m² | - |
| 1777332624 | 18.89° C | 41% | 1017.7 hPa | 0 mm | - | 0 W/m² | - |
| 1777330824 | 21.11° C | 34% | 1017.7 hPa | 0 mm | - | 0 W/m² | - |
| 1777329025 | 21.67° C | 31% | 1017.7 hPa | 0 mm | - | 0 W/m² | - |
| 1777327224 | 22.22° C | 31% | 1017.9 hPa | 0 mm | - | 0 W/m² | - |
| 1777325424 | 23.89° C | 32% | 1018.4 hPa | 0 mm | - | 0 W/m² | - |
| 1777323625 | 23.33° C | 31% | 1018.6 hPa | 0 mm | - | 0 W/m² | - |
| 1777321826 | 22.78° C | 31% | 1018.6 hPa | 0 mm | - | 0 W/m² | - |
* Rain latest hour (hover to see other rain measurements)
** Current wind speed in m/s (hover to see current wind gust speed)